createdAt,value
2023-03-03T00:01:20.431Z,100556.63
2023-03-03T00:03:48.038Z,100543.09
2023-03-03T00:06:15.433Z,100547.59
2023-03-03T00:08:43.227Z,100547.34
2023-03-03T00:11:11.008Z,100542.81
2023-03-03T00:13:51.008Z,100537.28
2023-03-03T00:16:26.154Z,100531.63
2023-03-03T00:18:54.752Z,100528.81
2023-03-03T00:21:21.894Z,100530.69
2023-03-03T00:23:49.654Z,100523.69
2023-03-03T00:26:21.786Z,100506.38
2023-03-03T00:28:54.714Z,100508.88
2023-03-03T00:31:35.379Z,100514.78
2023-03-03T00:34:18.556Z,100495.78
2023-03-03T00:36:49.035Z,100483.44
2023-03-03T00:39:23.937Z,100495.63
2023-03-03T00:41:51.253Z,100486.47
2023-03-03T00:44:42.343Z,100500.44
2023-03-03T00:47:35.715Z,100496.19
2023-03-03T00:50:06.266Z,100496.47
2023-03-03T00:52:39.430Z,100493.59
2023-03-03T00:55:08.624Z,100490.78
2023-03-03T00:57:35.882Z,100494.91
2023-03-03T01:00:05.800Z,100488.44
2023-03-03T01:02:33.648Z,100490.03
2023-03-03T01:05:01.276Z,100498.88
2023-03-03T01:07:28.502Z,100497.91
2023-03-03T01:09:55.987Z,100488.78
2023-03-03T01:12:24.388Z,100473.84
2023-03-03T01:14:54.937Z,100479.97
2023-03-03T01:17:22.312Z,100475.69
2023-03-03T01:19:50.055Z,100468.91
2023-03-03T01:22:17.415Z,100469.88
2023-03-03T01:24:44.914Z,100466.34
2023-03-03T01:27:12.422Z,100466.13
2023-03-03T01:29:39.959Z,100449.16
2023-03-03T01:32:07.254Z,100459.09
2023-03-03T01:34:34.897Z,100465.81
2023-03-03T01:37:02.370Z,100453.28
2023-03-03T01:39:29.946Z,100440.50
2023-03-03T01:41:57.347Z,100452.41
2023-03-03T01:44:24.839Z,100453.59
2023-03-03T01:46:55.570Z,100453.59
2023-03-03T01:49:33.492Z,100463.09
2023-03-03T01:52:05.306Z,100457.72
2023-03-03T01:54:47.689Z,100455.56
2023-03-03T01:57:19.458Z,100460.56
2023-03-03T01:59:50.705Z,100445.66
2023-03-03T02:02:19.684Z,100445.19
2023-03-03T02:04:47.350Z,100446.94
2023-03-03T02:07:15.835Z,100446.91
2023-03-03T02:09:58.047Z,100442.88
2023-03-03T02:12:49.351Z,100444.56
2023-03-03T02:15:20.370Z,100432.09
2023-03-03T02:17:50.154Z,100431.81
2023-03-03T02:20:29.976Z,100437.72
2023-03-03T02:23:04.009Z,100433.72
2023-03-03T02:25:44.075Z,100421.38
2023-03-03T02:28:11.522Z,100423.66
2023-03-03T02:30:39.822Z,100431.47
2023-03-03T02:33:09.012Z,100424.63
2023-03-03T02:35:39.346Z,100424.78
2023-03-03T02:38:06.954Z,100421.50
2023-03-03T02:40:40.495Z,100427.44
2023-03-03T02:43:10.324Z,100430.66
2023-03-03T02:45:45.404Z,100432.13
2023-03-03T02:48:12.792Z,100423.69
2023-03-03T02:50:40.374Z,100434.88
2023-03-03T02:53:07.774Z,100438.50
2023-03-03T02:55:35.333Z,100436.50
2023-03-03T02:58:02.622Z,100428.44
2023-03-03T03:00:30.473Z,100418.63
2023-03-03T03:02:57.737Z,100426.94
2023-03-03T03:05:25.350Z,100421.56
2023-03-03T03:07:52.557Z,100418.38
2023-03-03T03:10:20.937Z,100421.25
2023-03-03T03:12:48.570Z,100421.09
2023-03-03T03:15:16.238Z,100425.84
2023-03-03T03:17:43.754Z,100426.78
2023-03-03T03:20:13.060Z,100416.94
2023-03-03T03:22:40.428Z,100410.91
2023-03-03T03:25:10.209Z,100431.09
2023-03-03T03:27:37.943Z,100426.13
2023-03-03T03:30:06.276Z,100409.38
2023-03-03T03:32:33.584Z,100426.97
2023-03-03T03:35:01.841Z,100423.56
2023-03-03T03:37:29.452Z,100423.72
2023-03-03T03:39:57.121Z,100418.94
2023-03-03T03:42:25.228Z,100420.66
2023-03-03T03:44:52.898Z,100406.13
2023-03-03T03:47:20.204Z,100422.47
2023-03-03T03:49:47.912Z,100415.69
2023-03-03T03:52:15.568Z,100411.06
2023-03-03T03:54:43.266Z,100423.91
2023-03-03T03:57:10.527Z,100421.00
2023-03-03T03:59:38.878Z,100420.97
2023-03-03T04:02:06.323Z,100408.00
2023-03-03T04:04:34.054Z,100421.84
2023-03-03T04:07:01.382Z,100414.06
2023-03-03T04:09:28.966Z,100409.88
2023-03-03T04:11:56.308Z,100391.69
2023-03-03T04:14:24.469Z,100390.28
2023-03-03T04:16:51.801Z,100403.00
2023-03-03T04:19:19.514Z,100400.09
2023-03-03T04:21:47.759Z,100404.19
2023-03-03T04:24:15.347Z,100401.56
2023-03-03T04:26:42.649Z,100398.91
2023-03-03T04:29:11.933Z,100400.03
2023-03-03T04:31:41.274Z,100379.91
2023-03-03T04:34:10.546Z,100383.50
2023-03-03T04:36:38.045Z,100385.16
2023-03-03T04:39:05.812Z,100365.59
2023-03-03T04:41:33.531Z,100359.66
2023-03-03T04:44:01.296Z,100358.84
2023-03-03T04:46:28.612Z,100346.00
2023-03-03T04:48:57.022Z,100351.44
2023-03-03T04:51:26.191Z,100340.72
2023-03-03T04:53:53.884Z,100350.72
2023-03-03T04:56:21.129Z,100360.00
2023-03-03T04:58:49.597Z,100341.16
2023-03-03T05:01:19.455Z,100342.88
2023-03-03T05:03:47.067Z,100339.00
2023-03-03T05:06:14.458Z,100336.13
2023-03-03T05:08:43.304Z,100343.66
2023-03-03T05:11:11.199Z,100352.41
2023-03-03T05:13:38.673Z,100359.16
2023-03-03T05:16:06.374Z,100351.72
2023-03-03T05:18:33.949Z,100357.88
2023-03-03T05:21:01.710Z,100346.09
2023-03-03T05:23:29.685Z,100364.75
2023-03-03T05:25:57.000Z,100338.00
2023-03-03T05:28:24.514Z,100349.25
2023-03-03T05:30:51.844Z,100351.16
2023-03-03T05:33:19.695Z,100358.25
2023-03-03T05:35:46.946Z,100362.22
2023-03-03T05:38:14.530Z,100370.47
2023-03-03T05:40:41.795Z,100365.38
2023-03-03T05:43:09.507Z,100369.94
2023-03-03T05:45:36.860Z,100366.38
2023-03-03T05:48:05.041Z,100362.78
2023-03-03T05:50:32.941Z,100371.53
2023-03-03T05:53:00.492Z,100364.53
2023-03-03T05:55:27.839Z,100381.66
2023-03-03T05:57:55.710Z,100383.84
2023-03-03T06:00:23.458Z,100378.25
2023-03-03T06:02:51.103Z,100370.63
2023-03-03T06:05:18.622Z,100388.84
2023-03-03T06:07:46.146Z,100395.66
2023-03-03T06:10:13.430Z,100387.13
2023-03-03T06:12:42.740Z,100391.81
2023-03-03T06:15:10.811Z,100382.69
2023-03-03T06:17:38.646Z,100382.22
2023-03-03T06:20:06.959Z,100391.41
2023-03-03T06:22:34.522Z,100394.97
2023-03-03T06:25:01.742Z,100404.59
2023-03-03T06:27:29.474Z,100411.66
2023-03-03T06:29:56.887Z,100401.03
2023-03-03T06:32:24.566Z,100412.84
2023-03-03T06:34:51.964Z,100400.75
2023-03-03T06:37:19.488Z,100408.81
2023-03-03T06:39:46.798Z,100399.84
2023-03-03T06:42:14.324Z,100411.25
2023-03-03T06:44:41.714Z,100403.13
2023-03-03T06:47:09.236Z,100405.84
2023-03-03T06:49:36.636Z,100403.94
2023-03-03T06:52:13.723Z,100414.63
2023-03-03T06:54:41.341Z,100410.09
2023-03-03T06:57:23.525Z,100402.16
2023-03-03T06:59:54.584Z,100408.50
2023-03-03T07:02:23.045Z,100419.19
2023-03-03T07:04:50.504Z,100417.41
2023-03-03T07:07:20.951Z,100408.59
2023-03-03T07:09:57.583Z,100422.78
2023-03-03T07:12:30.692Z,100426.69
2023-03-03T07:15:01.079Z,100427.16
2023-03-03T07:17:28.696Z,100428.84
2023-03-03T07:19:56.080Z,100427.50
2023-03-03T07:22:27.964Z,100431.59
2023-03-03T07:25:01.934Z,100426.38
2023-03-03T07:27:31.416Z,100421.75
2023-03-03T07:30:24.998Z,100425.34
2023-03-03T07:32:56.774Z,100410.91
2023-03-03T07:35:41.116Z,100419.91
2023-03-03T07:38:23.396Z,100430.19
2023-03-03T07:40:56.281Z,100431.25
2023-03-03T07:43:49.597Z,100417.88
2023-03-03T07:46:43.560Z,100430.88
2023-03-03T07:49:36.055Z,100416.00
2023-03-03T07:52:18.523Z,100421.41
2023-03-03T07:54:47.429Z,100420.09
2023-03-03T07:57:17.673Z,100427.44
2023-03-03T07:59:50.903Z,100429.44
2023-03-03T08:02:38.400Z,100434.34
2023-03-03T08:05:34.889Z,100429.47
2023-03-03T08:08:09.610Z,100424.94
2023-03-03T08:10:43.574Z,100426.44
2023-03-03T08:13:20.995Z,100431.13
2023-03-03T08:16:18.077Z,100418.19
2023-03-03T08:18:47.815Z,100403.41
2023-03-03T08:21:18.004Z,100415.38
2023-03-03T08:23:46.122Z,100402.88
2023-03-03T08:26:14.170Z,100414.22
2023-03-03T08:28:41.436Z,100392.28
2023-03-03T08:31:18.366Z,100408.38
2023-03-03T08:33:49.782Z,100392.06
2023-03-03T08:36:17.356Z,100407.78
2023-03-03T08:38:44.855Z,100398.06
2023-03-03T08:41:12.589Z,100393.53
2023-03-03T08:43:40.236Z,100417.94
2023-03-03T08:46:10.378Z,100407.25
2023-03-03T08:48:38.638Z,100420.06
2023-03-03T08:51:06.795Z,100418.53
2023-03-03T08:53:36.669Z,100416.69
2023-03-03T08:56:05.107Z,100407.41
2023-03-03T08:58:35.541Z,100412.34
2023-03-03T09:01:04.203Z,100412.25
2023-03-03T09:03:31.483Z,100404.47
2023-03-03T09:05:59.181Z,100408.13
2023-03-03T09:08:26.484Z,100415.69
2023-03-03T09:10:54.051Z,100415.97
2023-03-03T09:13:21.358Z,100412.69
2023-03-03T09:15:50.575Z,100409.63
2023-03-03T09:18:22.553Z,100405.94
2023-03-03T09:20:54.617Z,100402.75
2023-03-03T09:23:38.215Z,100403.41
2023-03-03T09:26:11.776Z,100405.66
2023-03-03T09:28:39.064Z,100398.03
2023-03-03T09:31:24.305Z,100401.19
2023-03-03T09:33:55.196Z,100404.03
2023-03-03T09:36:30.417Z,100411.03
2023-03-03T09:38:58.484Z,100406.66
2023-03-03T09:41:44.647Z,100414.56
2023-03-03T09:44:42.830Z,100405.00
2023-03-03T09:47:46.982Z,100407.94
2023-03-03T09:50:29.536Z,100401.16
2023-03-03T09:53:28.682Z,100400.03
2023-03-03T09:56:01.951Z,100408.31
2023-03-03T09:58:38.166Z,100405.75
2023-03-03T10:01:36.256Z,100391.75
2023-03-03T10:04:22.582Z,100396.06
2023-03-03T10:07:11.491Z,100386.25
2023-03-03T10:09:48.081Z,100391.38
2023-03-03T10:12:33.839Z,100372.94
2023-03-03T10:15:04.233Z,100369.91
2023-03-03T10:17:44.896Z,100376.69
2023-03-03T10:20:47.516Z,100381.59
2023-03-03T10:23:40.336Z,100382.91
2023-03-03T10:26:17.042Z,100379.28
2023-03-03T10:28:54.528Z,100376.97
2023-03-03T10:31:33.305Z,100386.41
2023-03-03T10:34:19.741Z,100389.03
2023-03-03T10:37:09.266Z,100383.72
2023-03-03T10:39:39.895Z,100385.84
2023-03-03T10:42:16.496Z,100390.44
2023-03-03T10:45:19.584Z,100389.22
2023-03-03T10:48:08.303Z,100379.34
2023-03-03T10:50:56.868Z,100382.19
2023-03-03T10:54:08.937Z,100370.97
2023-03-03T10:56:58.052Z,100381.63
2023-03-03T10:59:47.454Z,100373.47
2023-03-03T11:02:42.379Z,100379.25
2023-03-03T11:05:15.908Z,100389.50
2023-03-03T11:07:49.072Z,100362.78
2023-03-03T11:10:44.601Z,100378.50
2023-03-03T11:13:38.110Z,100380.00
2023-03-03T11:16:11.713Z,100372.66
2023-03-03T11:19:03.726Z,100372.06
2023-03-03T11:21:34.271Z,100365.94
2023-03-03T11:24:25.804Z,100368.31
2023-03-03T11:27:41.410Z,100359.47
2023-03-03T11:30:30.193Z,100356.75
2023-03-03T11:33:03.470Z,100340.41
2023-03-03T11:35:51.985Z,100354.81
2023-03-03T11:38:45.351Z,100336.75
2023-03-03T11:41:43.529Z,100344.03
2023-03-03T11:44:40.899Z,100335.75
2023-03-03T11:47:31.787Z,100337.03
2023-03-03T11:50:04.954Z,100332.88
2023-03-03T11:52:46.275Z,100324.78
2023-03-03T11:55:17.641Z,100309.22
2023-03-03T11:57:52.115Z,100321.06
2023-03-03T12:00:32.715Z,100304.13
2023-03-03T12:03:13.344Z,100295.81
2023-03-03T12:05:51.746Z,100286.00
2023-03-03T12:08:56.476Z,100297.34
2023-03-03T12:11:32.256Z,100293.09
2023-03-03T12:14:36.986Z,100287.94
2023-03-03T12:17:08.206Z,100288.88
2023-03-03T12:19:42.843Z,100287.72
2023-03-03T12:22:48.644Z,100280.16
2023-03-03T12:25:30.144Z,100270.44
2023-03-03T12:28:08.052Z,100261.88
2023-03-03T12:30:38.366Z,100268.63
2023-03-03T12:33:37.864Z,100260.13
2023-03-03T12:36:14.545Z,100265.00
2023-03-03T12:39:00.108Z,100268.09
2023-03-03T12:41:42.303Z,100263.25
2023-03-03T12:44:21.873Z,100272.00
2023-03-03T12:47:02.541Z,100262.78
2023-03-03T12:50:01.151Z,100264.31
2023-03-03T12:52:58.585Z,100258.69
2023-03-03T12:55:31.960Z,100256.59
2023-03-03T12:58:17.441Z,100255.63
2023-03-03T13:00:48.384Z,100242.72
2023-03-03T13:03:59.353Z,100234.56
2023-03-03T13:06:52.988Z,100229.81
2023-03-03T13:09:43.347Z,100228.50
2023-03-03T13:12:32.784Z,100228.31
2023-03-03T13:15:03.393Z,100215.56
2023-03-03T13:17:56.405Z,100209.69
2023-03-03T13:20:45.572Z,100206.03
2023-03-03T13:23:16.057Z,100211.25
2023-03-03T13:26:08.086Z,100202.50
2023-03-03T13:28:53.955Z,100203.47
2023-03-03T13:31:24.259Z,100213.28
2023-03-03T13:33:57.804Z,100210.31
2023-03-03T13:36:37.396Z,100203.28
2023-03-03T13:39:25.913Z,100216.81
2023-03-03T13:42:01.666Z,100202.56
2023-03-03T13:44:36.321Z,100201.69
2023-03-03T13:47:12.876Z,100212.06
2023-03-03T13:49:56.110Z,100201.47
2023-03-03T13:52:39.219Z,100201.47
2023-03-03T13:55:21.606Z,100202.56
2023-03-03T13:57:56.310Z,100201.72
2023-03-03T14:00:43.221Z,100186.38
2023-03-03T14:03:23.285Z,100194.13
2023-03-03T14:05:56.437Z,100197.63
2023-03-03T14:08:44.996Z,100196.75
2023-03-03T14:11:17.416Z,100188.81
2023-03-03T14:14:04.853Z,100178.00
2023-03-03T14:16:38.569Z,100174.06
2023-03-03T14:19:28.538Z,100175.50
2023-03-03T14:22:23.964Z,100185.94
2023-03-03T14:25:17.701Z,100165.78
2023-03-03T14:27:48.038Z,100163.34
2023-03-03T14:30:30.560Z,100167.41
2023-03-03T14:33:03.191Z,100153.63
2023-03-03T14:35:34.269Z,100160.53
2023-03-03T14:38:04.677Z,100155.94
2023-03-03T14:40:34.469Z,100140.97
2023-03-03T14:43:04.951Z,100138.50
2023-03-03T14:45:39.495Z,100147.47
2023-03-03T14:48:17.505Z,100140.72
2023-03-03T14:50:53.871Z,100124.41
2023-03-03T14:53:32.946Z,100134.00
2023-03-03T14:56:15.452Z,100136.28
2023-03-03T14:58:43.860Z,100130.50
2023-03-03T15:01:15.784Z,100131.84
2023-03-03T15:03:52.576Z,100130.28
2023-03-03T15:06:41.647Z,100127.66
2023-03-03T15:09:24.351Z,100118.72
2023-03-03T15:11:56.739Z,100107.44
2023-03-03T15:14:44.640Z,100091.59
2023-03-03T15:17:25.850Z,100100.50
2023-03-03T15:20:02.100Z,100104.25
2023-03-03T15:22:47.586Z,100108.06
2023-03-03T15:25:24.142Z,100086.13
2023-03-03T15:28:22.702Z,100090.25
2023-03-03T15:30:55.982Z,100087.44
2023-03-03T15:33:33.693Z,100073.00
2023-03-03T15:36:14.521Z,100077.84
2023-03-03T15:39:00.535Z,100077.75
2023-03-03T15:41:52.772Z,100075.72
2023-03-03T15:44:45.312Z,100074.78
2023-03-03T15:47:41.395Z,100071.63
2023-03-03T15:50:27.550Z,100070.38
2023-03-03T15:53:20.147Z,100062.47
2023-03-03T15:55:53.073Z,100058.91
2023-03-03T15:58:42.092Z,100062.63
2023-03-03T16:01:40.491Z,100057.06
2023-03-03T16:04:14.648Z,100048.88
2023-03-03T16:06:54.181Z,100044.19
2023-03-03T16:09:47.485Z,100036.03
2023-03-03T16:12:33.359Z,100029.19
2023-03-03T16:15:16.328Z,100027.50
2023-03-03T16:17:50.562Z,100018.28
2023-03-03T16:20:35.028Z,100007.38
2023-03-03T16:23:20.872Z,100013.19
2023-03-03T16:25:48.422Z,100007.50
2023-03-03T16:28:44.560Z,99991.56
2023-03-03T16:31:34.150Z,99999.72
2023-03-03T16:34:23.817Z,99987.69
2023-03-03T16:37:01.662Z,99999.34
2023-03-03T16:39:47.353Z,99988.31
2023-03-03T16:42:31.400Z,99970.00
2023-03-03T16:44:58.580Z,99960.88
2023-03-03T16:47:26.098Z,99953.25
2023-03-03T16:50:21.341Z,99962.22
2023-03-03T16:52:57.040Z,99946.28
2023-03-03T16:55:30.767Z,99957.97
2023-03-03T16:58:35.504Z,99945.47
2023-03-03T17:01:43.609Z,99936.63
2023-03-03T17:04:27.920Z,99947.16
2023-03-03T17:07:44.853Z,99946.78
2023-03-03T17:10:35.582Z,99948.59
2023-03-03T17:13:29.958Z,99942.06
2023-03-03T17:16:00.519Z,99930.19
2023-03-03T17:19:09.837Z,99941.03
2023-03-03T17:22:01.769Z,99951.59
2023-03-03T17:24:41.223Z,99927.84
2023-03-03T17:27:14.304Z,99940.47
2023-03-03T17:30:09.942Z,99926.13
2023-03-03T17:33:03.690Z,99927.84
2023-03-03T17:35:55.160Z,99944.66
2023-03-03T17:38:28.758Z,99930.97
2023-03-03T17:41:02.267Z,99932.31
2023-03-03T17:43:52.786Z,99942.59
2023-03-03T17:46:39.818Z,99932.44
2023-03-03T17:49:33.823Z,99926.00
2023-03-03T17:52:21.398Z,99940.25
2023-03-03T17:55:45.958Z,99937.16
2023-03-03T17:58:23.243Z,99943.19
2023-03-03T18:01:05.029Z,99934.69
2023-03-03T18:03:47.380Z,99931.34
2023-03-03T18:06:32.990Z,99917.00
2023-03-03T18:09:18.783Z,99917.09
2023-03-03T18:12:05.233Z,99921.81
2023-03-03T18:14:35.968Z,99917.75
2023-03-03T18:17:32.111Z,99919.16
2023-03-03T18:20:02.808Z,99899.97
2023-03-03T18:22:34.138Z,99903.66
2023-03-03T18:25:23.236Z,99896.47
2023-03-03T18:27:59.590Z,99895.72
2023-03-03T18:30:35.311Z,99894.66
2023-03-03T18:33:08.363Z,99883.91
2023-03-03T18:35:40.665Z,99886.31
2023-03-03T18:38:17.152Z,99888.31
2023-03-03T18:41:00.129Z,99867.88
2023-03-03T18:43:45.585Z,99881.13
2023-03-03T18:46:25.153Z,99872.94
2023-03-03T18:49:07.170Z,99877.63
2023-03-03T18:51:34.880Z,99870.34
2023-03-03T18:54:31.023Z,99865.84
2023-03-03T18:57:02.927Z,99863.25
2023-03-03T18:59:37.055Z,99849.97
2023-03-03T19:02:09.090Z,99839.91
2023-03-03T19:04:38.355Z,99814.06
2023-03-03T19:07:26.754Z,99811.84
2023-03-03T19:10:03.786Z,99815.66
2023-03-03T19:12:54.694Z,99813.38
2023-03-03T19:15:31.251Z,99829.22
2023-03-03T19:18:26.904Z,99844.56
2023-03-03T19:21:06.076Z,99822.03
2023-03-03T19:23:59.823Z,99823.69
2023-03-03T19:26:30.367Z,99818.00
2023-03-03T19:29:19.049Z,99822.28
2023-03-03T19:32:04.597Z,99820.81
2023-03-03T19:34:56.907Z,99804.97
2023-03-03T19:37:45.653Z,99810.97
2023-03-03T19:40:31.660Z,99824.09
2023-03-03T19:43:08.938Z,99814.56
2023-03-03T19:46:12.683Z,99824.50
2023-03-03T19:49:01.390Z,99822.91
2023-03-03T19:51:58.909Z,99820.88
2023-03-03T19:54:50.901Z,99810.91
2023-03-03T19:57:40.213Z,99815.19
2023-03-03T20:00:15.516Z,99813.50
2023-03-03T20:02:58.215Z,99807.66
2023-03-03T20:05:50.290Z,99797.44
2023-03-03T20:08:47.674Z,99813.91
2023-03-03T20:11:46.143Z,99803.59
2023-03-03T20:14:32.026Z,99807.94
2023-03-03T20:17:26.550Z,99789.84
2023-03-03T20:20:07.931Z,99802.13
2023-03-03T20:22:54.415Z,99782.13
2023-03-03T20:25:46.447Z,99785.56
2023-03-03T20:28:22.373Z,99815.66
2023-03-03T20:31:14.219Z,99797.16
2023-03-03T20:34:20.283Z,99781.72
2023-03-03T20:37:13.824Z,99794.22
2023-03-03T20:40:10.630Z,99790.75
2023-03-03T20:43:12.904Z,99791.38
2023-03-03T20:46:22.063Z,99787.25
2023-03-03T20:49:01.414Z,99789.78
2023-03-03T20:52:03.738Z,99773.38
2023-03-03T20:54:30.990Z,99769.50
2023-03-03T20:57:04.260Z,99768.19
2023-03-03T20:59:42.533Z,99766.56
2023-03-03T21:02:18.454Z,99786.56
2023-03-03T21:04:45.937Z,99780.47
2023-03-03T21:07:26.515Z,99747.97
2023-03-03T21:10:16.485Z,99725.56
2023-03-03T21:12:44.070Z,99710.91
2023-03-03T21:15:32.359Z,99696.44
2023-03-03T21:18:00.452Z,99683.56
2023-03-03T21:20:29.749Z,99674.75
2023-03-03T21:22:58.914Z,99670.16
2023-03-03T21:25:41.658Z,99681.00
2023-03-03T21:28:27.475Z,99670.66
2023-03-03T21:31:15.788Z,99664.81
2023-03-03T21:33:46.352Z,99684.38
2023-03-03T21:36:17.156Z,99661.59
2023-03-03T21:38:46.319Z,99654.28
2023-03-03T21:41:15.686Z,99633.84
2023-03-03T21:43:46.074Z,99643.47
2023-03-03T21:46:17.766Z,99630.38
2023-03-03T21:48:46.178Z,99633.75
2023-03-03T21:51:14.285Z,99624.44
2023-03-03T21:53:44.089Z,99607.91
2023-03-03T21:56:13.983Z,99610.31
2023-03-03T21:58:42.732Z,99611.91
2023-03-03T22:01:10.506Z,99601.38
2023-03-03T22:03:37.829Z,99610.66
2023-03-03T22:06:05.673Z,99625.28
2023-03-03T22:08:33.172Z,99618.47
2023-03-03T22:11:00.707Z,99616.31
2023-03-03T22:13:28.219Z,99616.81
2023-03-03T22:15:55.843Z,99624.41
2023-03-03T22:18:23.318Z,99614.47
2023-03-03T22:20:51.007Z,99604.09
2023-03-03T22:23:19.147Z,99608.31
2023-03-03T22:25:48.072Z,99586.56
2023-03-03T22:28:15.349Z,99605.91
2023-03-03T22:30:43.459Z,99606.50
2023-03-03T22:33:11.114Z,99598.53
2023-03-03T22:35:38.938Z,99608.81
2023-03-03T22:38:06.213Z,99583.66
2023-03-03T22:40:33.964Z,99590.41
2023-03-03T22:43:01.281Z,99579.06
2023-03-03T22:45:28.871Z,99565.03
2023-03-03T22:47:56.342Z,99581.34
2023-03-03T22:50:24.114Z,99571.75
2023-03-03T22:52:51.461Z,99575.66
2023-03-03T22:55:19.067Z,99544.34
2023-03-03T22:57:46.270Z,99576.88
2023-03-03T23:00:15.103Z,99564.91
2023-03-03T23:02:42.410Z,99582.47
2023-03-03T23:05:11.130Z,99554.38
2023-03-03T23:07:40.257Z,99555.84
2023-03-03T23:10:08.884Z,99548.31
2023-03-03T23:12:36.469Z,99547.13
2023-03-03T23:15:06.560Z,99537.91
2023-03-03T23:17:33.860Z,99540.56
2023-03-03T23:20:01.483Z,99520.97
2023-03-03T23:22:28.730Z,99511.41
2023-03-03T23:24:56.258Z,99511.56
2023-03-03T23:27:23.510Z,99506.44
2023-03-03T23:29:52.401Z,99518.50
2023-03-03T23:32:20.966Z,99506.16
2023-03-03T23:34:48.607Z,99511.03
2023-03-03T23:37:15.852Z,99506.72
2023-03-03T23:39:43.507Z,99506.16
2023-03-03T23:42:10.977Z,99511.38
2023-03-03T23:44:40.695Z,99510.94
2023-03-03T23:47:08.941Z,99497.09
2023-03-03T23:49:36.678Z,99500.69
2023-03-03T23:52:04.676Z,99492.13
2023-03-03T23:54:32.259Z,99507.28
2023-03-03T23:56:59.492Z,99489.66
2023-03-03T23:59:27.075Z,99500.28
